sensor_id;sensor_type;location;lat;lon;timestamp;temperature;humidity
30206;DHT22;17010;51.306;3.150;2023-07-28T00:00:00;18.80;99.90
30206;DHT22;17010;51.306;3.150;2023-07-28T00:03:46;18.80;99.90
30206;DHT22;17010;51.306;3.150;2023-07-28T00:07:19;18.80;99.90
30206;DHT22;17010;51.306;3.150;2023-07-28T00:10:10;18.80;99.90
30206;DHT22;17010;51.306;3.150;2023-07-28T00:12:38;18.80;99.90
30206;DHT22;17010;51.306;3.150;2023-07-28T00:15:21;18.70;99.90
30206;DHT22;17010;51.306;3.150;2023-07-28T00:18:21;18.80;99.90
30206;DHT22;17010;51.306;3.150;2023-07-28T00:20:48;18.80;99.90
30206;DHT22;17010;51.306;3.150;2023-07-28T00:23:50;18.70;99.90
30206;DHT22;17010;51.306;3.150;2023-07-28T00:27:08;18.70;99.90
30206;DHT22;17010;51.306;3.150;2023-07-28T00:32:55;18.70;99.90
30206;DHT22;17010;51.306;3.150;2023-07-28T00:39:04;18.60;99.90
30206;DHT22;17010;51.306;3.150;2023-07-28T00:42:00;18.60;99.90
30206;DHT22;17010;51.306;3.150;2023-07-28T00:44:36;18.60;99.90
30206;DHT22;17010;51.306;3.150;2023-07-28T00:47:12;18.50;99.90
30206;DHT22;17010;51.306;3.150;2023-07-28T00:49:40;18.60;99.90
30206;DHT22;17010;51.306;3.150;2023-07-28T00:52:28;18.60;99.90
30206;DHT22;17010;51.306;3.150;2023-07-28T00:55:13;18.70;99.90
30206;DHT22;17010;51.306;3.150;2023-07-28T00:57:49;18.70;99.90
30206;DHT22;17010;51.306;3.150;2023-07-28T01:00:41;18.70;99.90
30206;DHT22;17010;51.306;3.150;2023-07-28T01:03:39;18.70;99.90
30206;DHT22;17010;51.306;3.150;2023-07-28T01:09:57;18.70;99.90
30206;DHT22;17010;51.306;3.150;2023-07-28T01:13:07;18.70;99.90
30206;DHT22;17010;51.306;3.150;2023-07-28T01:15:39;18.70;99.90
30206;DHT22;17010;51.306;3.150;2023-07-28T01:18:28;18.80;99.90
30206;DHT22;17010;51.306;3.150;2023-07-28T01:21:19;18.80;99.90
30206;DHT22;17010;51.306;3.150;2023-07-28T01:24:14;18.70;99.90
30206;DHT22;17010;51.306;3.150;2023-07-28T01:27:01;18.70;99.90
30206;DHT22;17010;51.306;3.150;2023-07-28T01:30:12;18.70;99.90
30206;DHT22;17010;51.306;3.150;2023-07-28T01:33:10;18.70;99.90
30206;DHT22;17010;51.306;3.150;2023-07-28T01:35:54;18.70;99.90
30206;DHT22;17010;51.306;3.150;2023-07-28T01:38:23;18.80;99.90
30206;DHT22;17010;51.306;3.150;2023-07-28T01:40:50;18.80;99.90
30206;DHT22;17010;51.306;3.150;2023-07-28T01:44:04;18.70;99.90
30206;DHT22;17010;51.306;3.150;2023-07-28T01:46:57;18.70;99.90
30206;DHT22;17010;51.306;3.150;2023-07-28T01:49:26;18.70;99.90
30206;DHT22;17010;51.306;3.150;2023-07-28T01:52:36;18.70;99.90
30206;DHT22;17010;51.306;3.150;2023-07-28T01:55:39;18.70;99.90
30206;DHT22;17010;51.306;3.150;2023-07-28T01:58:54;18.70;99.90
30206;DHT22;17010;51.306;3.150;2023-07-28T02:01:28;18.80;99.90
30206;DHT22;17010;51.306;3.150;2023-07-28T02:04:17;18.80;99.90
30206;DHT22;17010;51.306;3.150;2023-07-28T02:06:51;18.80;99.90
30206;DHT22;17010;51.306;3.150;2023-07-28T02:09:50;18.80;99.90
30206;DHT22;17010;51.306;3.150;2023-07-28T02:25:52;18.80;99.90
30206;DHT22;17010;51.306;3.150;2023-07-28T02:29:05;18.80;99.90
30206;DHT22;17010;51.306;3.150;2023-07-28T02:32:37;18.80;99.90
30206;DHT22;17010;51.306;3.150;2023-07-28T02:35:56;18.80;99.90
30206;DHT22;17010;51.306;3.150;2023-07-28T02:38:30;18.80;99.90
30206;DHT22;17010;51.306;3.150;2023-07-28T02:41:03;18.80;99.90
30206;DHT22;17010;51.306;3.150;2023-07-28T02:43:56;18.80;99.90
30206;DHT22;17010;51.306;3.150;2023-07-28T02:47:20;18.80;99.90
30206;DHT22;17010;51.306;3.150;2023-07-28T02:50:34;18.80;99.90
30206;DHT22;17010;51.306;3.150;2023-07-28T02:53:26;18.90;99.90
30206;DHT22;17010;51.306;3.150;2023-07-28T02:56:22;18.80;99.90
30206;DHT22;17010;51.306;3.150;2023-07-28T03:02:18;18.80;99.90
30206;DHT22;17010;51.306;3.150;2023-07-28T03:06:04;18.80;99.90
30206;DHT22;17010;51.306;3.150;2023-07-28T03:12:37;18.80;99.90
30206;DHT22;17010;51.306;3.150;2023-07-28T03:15:43;18.80;99.90
30206;DHT22;17010;51.306;3.150;2023-07-28T03:19:09;18.80;99.90
30206;DHT22;17010;51.306;3.150;2023-07-28T03:21:40;18.80;99.90
30206;DHT22;17010;51.306;3.150;2023-07-28T03:24:35;18.80;99.90
30206;DHT22;17010;51.306;3.150;2023-07-28T03:27:26;18.80;99.90
30206;DHT22;17010;51.306;3.150;2023-07-28T03:30:03;18.80;99.90
30206;DHT22;17010;51.306;3.150;2023-07-28T03:32:53;18.80;99.90
30206;DHT22;17010;51.306;3.150;2023-07-28T03:35:34;18.70;99.90
30206;DHT22;17010;51.306;3.150;2023-07-28T03:42:03;18.80;99.90
30206;DHT22;17010;51.306;3.150;2023-07-28T03:44:58;18.80;99.90
30206;DHT22;17010;51.306;3.150;2023-07-28T03:48:26;18.80;99.90
30206;DHT22;17010;51.306;3.150;2023-07-28T03:55:37;18.80;99.90
30206;DHT22;17010;51.306;3.150;2023-07-28T03:58:52;18.80;99.90
30206;DHT22;17010;51.306;3.150;2023-07-28T04:01:43;18.80;99.90
30206;DHT22;17010;51.306;3.150;2023-07-28T04:05:00;18.80;99.90
30206;DHT22;17010;51.306;3.150;2023-07-28T04:07:45;18.80;99.90
30206;DHT22;17010;51.306;3.150;2023-07-28T04:10:36;18.80;99.90
30206;DHT22;17010;51.306;3.150;2023-07-28T04:14:11;18.80;99.90
30206;DHT22;17010;51.306;3.150;2023-07-28T04:17:19;18.80;99.90
30206;DHT22;17010;51.306;3.150;2023-07-28T04:23:30;18.80;99.90
30206;DHT22;17010;51.306;3.150;2023-07-28T04:26:36;18.80;99.90
30206;DHT22;17010;51.306;3.150;2023-07-28T04:30:15;18.90;99.90
30206;DHT22;17010;51.306;3.150;2023-07-28T04:33:04;18.80;99.90
30206;DHT22;17010;51.306;3.150;2023-07-28T04:36:03;18.90;99.90
30206;DHT22;17010;51.306;3.150;2023-07-28T04:39:01;18.90;99.90
30206;DHT22;17010;51.306;3.150;2023-07-28T04:42:19;18.90;99.90
30206;DHT22;17010;51.306;3.150;2023-07-28T04:45:53;18.90;99.90
30206;DHT22;17010;51.306;3.150;2023-07-28T04:49:08;18.90;99.90
30206;DHT22;17010;51.306;3.150;2023-07-28T04:52:34;18.90;99.90
30206;DHT22;17010;51.306;3.150;2023-07-28T04:59:14;18.90;99.90
30206;DHT22;17010;51.306;3.150;2023-07-28T05:02:12;18.90;99.90
30206;DHT22;17010;51.306;3.150;2023-07-28T05:05:31;18.90;99.90
30206;DHT22;17010;51.306;3.150;2023-07-28T05:08:22;18.90;99.90
30206;DHT22;17010;51.306;3.150;2023-07-28T05:11:39;19.00;99.90
30206;DHT22;17010;51.306;3.150;2023-07-28T05:14:47;19.00;99.90
30206;DHT22;17010;51.306;3.150;2023-07-28T05:18:20;19.00;99.90
30206;DHT22;17010;51.306;3.150;2023-07-28T05:28:48;19.10;99.90
30206;DHT22;17010;51.306;3.150;2023-07-28T05:32:08;19.10;99.90
30206;DHT22;17010;51.306;3.150;2023-07-28T05:35:00;19.10;99.90
30206;DHT22;17010;51.306;3.150;2023-07-28T05:41:08;19.20;99.90
30206;DHT22;17010;51.306;3.150;2023-07-28T05:44:22;19.20;99.90
30206;DHT22;17010;51.306;3.150;2023-07-28T05:47:48;19.20;99.90
30206;DHT22;17010;51.306;3.150;2023-07-28T05:50:54;19.20;99.90
30206;DHT22;17010;51.306;3.150;2023-07-28T05:53:50;19.30;99.90
30206;DHT22;17010;51.306;3.150;2023-07-28T05:56:33;19.30;99.90
30206;DHT22;17010;51.306;3.150;2023-07-28T05:59:29;19.30;99.90
30206;DHT22;17010;51.306;3.150;2023-07-28T06:02:06;19.30;99.90
30206;DHT22;17010;51.306;3.150;2023-07-28T06:04:42;19.30;99.90
30206;DHT22;17010;51.306;3.150;2023-07-28T06:07:17;19.30;99.90
30206;DHT22;17010;51.306;3.150;2023-07-28T06:09:43;19.30;99.90
30206;DHT22;17010;51.306;3.150;2023-07-28T06:12:10;19.30;99.90
30206;DHT22;17010;51.306;3.150;2023-07-28T06:14:37;19.30;99.90
30206;DHT22;17010;51.306;3.150;2023-07-28T06:17:09;19.20;99.90
30206;DHT22;17010;51.306;3.150;2023-07-28T06:19:36;19.20;99.90
30206;DHT22;17010;51.306;3.150;2023-07-28T06:22:02;19.20;99.90
30206;DHT22;17010;51.306;3.150;2023-07-28T06:24:29;19.20;99.90
30206;DHT22;17010;51.306;3.150;2023-07-28T06:27:02;19.20;99.90
30206;DHT22;17010;51.306;3.150;2023-07-28T06:29:37;19.20;99.90
30206;DHT22;17010;51.306;3.150;2023-07-28T06:32:09;19.20;99.90
30206;DHT22;17010;51.306;3.150;2023-07-28T06:34:42;19.20;99.90
30206;DHT22;17010;51.306;3.150;2023-07-28T06:37:21;19.20;99.90
30206;DHT22;17010;51.306;3.150;2023-07-28T06:39:51;19.20;99.90
30206;DHT22;17010;51.306;3.150;2023-07-28T06:42:40;19.20;99.90
30206;DHT22;17010;51.306;3.150;2023-07-28T06:45:17;19.20;99.90
30206;DHT22;17010;51.306;3.150;2023-07-28T06:48:09;19.10;99.90
30206;DHT22;17010;51.306;3.150;2023-07-28T06:51:01;19.20;99.90
30206;DHT22;17010;51.306;3.150;2023-07-28T06:53:29;19.20;99.90
30206;DHT22;17010;51.306;3.150;2023-07-28T06:55:57;19.20;99.90
30206;DHT22;17010;51.306;3.150;2023-07-28T06:58:44;19.20;99.90
30206;DHT22;17010;51.306;3.150;2023-07-28T07:01:25;19.30;99.90
30206;DHT22;17010;51.306;3.150;2023-07-28T07:04:11;19.20;99.90
30206;DHT22;17010;51.306;3.150;2023-07-28T07:06:58;19.30;99.90
30206;DHT22;17010;51.306;3.150;2023-07-28T07:09:32;19.30;99.90
30206;DHT22;17010;51.306;3.150;2023-07-28T07:12:44;19.30;99.90
30206;DHT22;17010;51.306;3.150;2023-07-28T07:15:13;19.40;99.90
30206;DHT22;17010;51.306;3.150;2023-07-28T07:18:21;19.40;99.90
30206;DHT22;17010;51.306;3.150;2023-07-28T07:21:09;19.40;99.90
30206;DHT22;17010;51.306;3.150;2023-07-28T07:24:06;19.50;99.90
30206;DHT22;17010;51.306;3.150;2023-07-28T07:26:39;19.50;99.90
30206;DHT22;17010;51.306;3.150;2023-07-28T07:29:13;19.50;99.90
30206;DHT22;17010;51.306;3.150;2023-07-28T07:31:40;19.60;99.90
30206;DHT22;17010;51.306;3.150;2023-07-28T07:34:06;19.60;99.90
30206;DHT22;17010;51.306;3.150;2023-07-28T07:36:40;19.70;99.90
30206;DHT22;17010;51.306;3.150;2023-07-28T07:39:15;19.70;99.90
30206;DHT22;17010;51.306;3.150;2023-07-28T07:41:59;19.80;99.90
30206;DHT22;17010;51.306;3.150;2023-07-28T07:45:04;19.90;99.90
30206;DHT22;17010;51.306;3.150;2023-07-28T07:47:49;19.90;99.90
30206;DHT22;17010;51.306;3.150;2023-07-28T07:50:36;20.00;99.90
30206;DHT22;17010;51.306;3.150;2023-07-28T07:53:02;20.10;99.90
30206;DHT22;17010;51.306;3.150;2023-07-28T07:55:29;20.20;99.90
30206;DHT22;17010;51.306;3.150;2023-07-28T07:57:55;20.30;99.90
30206;DHT22;17010;51.306;3.150;2023-07-28T08:00:23;20.40;99.90
30206;DHT22;17010;51.306;3.150;2023-07-28T08:02:50;20.40;99.90
30206;DHT22;17010;51.306;3.150;2023-07-28T08:05:16;20.40;99.90
30206;DHT22;17010;51.306;3.150;2023-07-28T08:07:43;20.50;99.90
30206;DHT22;17010;51.306;3.150;2023-07-28T08:10:11;20.50;99.90
30206;DHT22;17010;51.306;3.150;2023-07-28T08:12:37;20.60;99.90
30206;DHT22;17010;51.306;3.150;2023-07-28T08:15:04;20.60;99.90
30206;DHT22;17010;51.306;3.150;2023-07-28T08:17:31;20.70;99.90
30206;DHT22;17010;51.306;3.150;2023-07-28T08:19:57;20.70;99.90
30206;DHT22;17010;51.306;3.150;2023-07-28T08:22:25;20.70;99.90
30206;DHT22;17010;51.306;3.150;2023-07-28T08:24:51;20.80;99.90
30206;DHT22;17010;51.306;3.150;2023-07-28T08:27:18;20.90;99.90
30206;DHT22;17010;51.306;3.150;2023-07-28T08:29:47;21.00;99.90
30206;DHT22;17010;51.306;3.150;2023-07-28T08:32:13;21.10;99.90
30206;DHT22;17010;51.306;3.150;2023-07-28T08:34:39;21.10;99.90
30206;DHT22;17010;51.306;3.150;2023-07-28T08:37:07;21.10;99.90
30206;DHT22;17010;51.306;3.150;2023-07-28T08:39:33;21.10;99.90
30206;DHT22;17010;51.306;3.150;2023-07-28T08:42:01;21.00;99.90
30206;DHT22;17010;51.306;3.150;2023-07-28T08:44:34;21.00;99.90
30206;DHT22;17010;51.306;3.150;2023-07-28T08:47:01;20.90;99.90
30206;DHT22;17010;51.306;3.150;2023-07-28T08:49:29;21.00;99.90
30206;DHT22;17010;51.306;3.150;2023-07-28T08:51:59;21.00;99.90
30206;DHT22;17010;51.306;3.150;2023-07-28T08:54:26;20.90;99.90
30206;DHT22;17010;51.306;3.150;2023-07-28T08:56:52;20.80;99.90
30206;DHT22;17010;51.306;3.150;2023-07-28T08:59:22;20.80;99.90
30206;DHT22;17010;51.306;3.150;2023-07-28T09:01:55;20.80;99.90
30206;DHT22;17010;51.306;3.150;2023-07-28T09:04:22;20.70;99.90
30206;DHT22;17010;51.306;3.150;2023-07-28T09:06:49;20.70;99.90
30206;DHT22;17010;51.306;3.150;2023-07-28T09:09:21;20.70;99.90
30206;DHT22;17010;51.306;3.150;2023-07-28T09:11:52;20.60;99.90
30206;DHT22;17010;51.306;3.150;2023-07-28T09:14:21;20.60;99.90
30206;DHT22;17010;51.306;3.150;2023-07-28T09:16:52;20.60;99.90
30206;DHT22;17010;51.306;3.150;2023-07-28T09:19:19;20.60;99.90
30206;DHT22;17010;51.306;3.150;2023-07-28T09:21:56;20.60;99.90
30206;DHT22;17010;51.306;3.150;2023-07-28T09:24:24;20.60;99.90
30206;DHT22;17010;51.306;3.150;2023-07-28T09:26:56;20.60;99.90
30206;DHT22;17010;51.306;3.150;2023-07-28T09:29:23;20.60;99.90
30206;DHT22;17010;51.306;3.150;2023-07-28T09:31:50;20.60;99.90
30206;DHT22;17010;51.306;3.150;2023-07-28T09:34:27;20.60;99.90
30206;DHT22;17010;51.306;3.150;2023-07-28T09:36:57;20.60;99.90
30206;DHT22;17010;51.306;3.150;2023-07-28T09:39:24;20.60;99.90
30206;DHT22;17010;51.306;3.150;2023-07-28T09:41:59;20.60;99.90
30206;DHT22;17010;51.306;3.150;2023-07-28T09:44:25;20.60;99.90
30206;DHT22;17010;51.306;3.150;2023-07-28T09:46:55;20.60;99.90
30206;DHT22;17010;51.306;3.150;2023-07-28T09:49:33;20.70;99.90
30206;DHT22;17010;51.306;3.150;2023-07-28T09:52:09;20.80;99.90
30206;DHT22;17010;51.306;3.150;2023-07-28T09:54:44;21.00;99.90
30206;DHT22;17010;51.306;3.150;2023-07-28T09:57:16;21.10;99.90
30206;DHT22;17010;51.306;3.150;2023-07-28T09:59:47;21.40;99.90
30206;DHT22;17010;51.306;3.150;2023-07-28T10:02:13;21.70;99.90
30206;DHT22;17010;51.306;3.150;2023-07-28T10:04:39;21.70;99.90
30206;DHT22;17010;51.306;3.150;2023-07-28T10:07:07;21.80;99.90
30206;DHT22;17010;51.306;3.150;2023-07-28T10:09:33;21.90;99.90
30206;DHT22;17010;51.306;3.150;2023-07-28T10:12:01;22.40;99.90
30206;DHT22;17010;51.306;3.150;2023-07-28T10:14:31;23.20;99.90
30206;DHT22;17010;51.306;3.150;2023-07-28T10:17:00;24.00;99.90
30206;DHT22;17010;51.306;3.150;2023-07-28T10:19:39;24.30;99.90
30206;DHT22;17010;51.306;3.150;2023-07-28T10:22:10;24.60;99.90
30206;DHT22;17010;51.306;3.150;2023-07-28T10:24:51;24.90;99.90
30206;DHT22;17010;51.306;3.150;2023-07-28T10:27:38;25.20;99.90
30206;DHT22;17010;51.306;3.150;2023-07-28T10:30:11;25.30;99.90
30206;DHT22;17010;51.306;3.150;2023-07-28T10:32:45;25.30;99.90
30206;DHT22;17010;51.306;3.150;2023-07-28T10:37:46;24.60;99.90
30206;DHT22;17010;51.306;3.150;2023-07-28T10:40:35;24.20;99.90
30206;DHT22;17010;51.306;3.150;2023-07-28T10:43:05;23.70;99.90
30206;DHT22;17010;51.306;3.150;2023-07-28T10:45:32;23.40;99.90
30206;DHT22;17010;51.306;3.150;2023-07-28T10:47:59;23.10;99.90
30206;DHT22;17010;51.306;3.150;2023-07-28T10:50:29;23.00;99.90
30206;DHT22;17010;51.306;3.150;2023-07-28T10:52:55;22.90;99.90
30206;DHT22;17010;51.306;3.150;2023-07-28T10:55:26;22.90;99.90
30206;DHT22;17010;51.306;3.150;2023-07-28T10:57:54;23.00;99.90
30206;DHT22;17010;51.306;3.150;2023-07-28T11:00:21;22.90;99.90
30206;DHT22;17010;51.306;3.150;2023-07-28T11:02:49;22.80;99.90
30206;DHT22;17010;51.306;3.150;2023-07-28T11:05:20;22.70;99.90
30206;DHT22;17010;51.306;3.150;2023-07-28T11:07:48;22.40;99.90
30206;DHT22;17010;51.306;3.150;2023-07-28T11:10:15;22.20;99.90
30206;DHT22;17010;51.306;3.150;2023-07-28T11:12:48;22.10;99.90
30206;DHT22;17010;51.306;3.150;2023-07-28T11:15:15;22.00;99.90
30206;DHT22;17010;51.306;3.150;2023-07-28T11:17:49;21.90;99.90
30206;DHT22;17010;51.306;3.150;2023-07-28T11:20:16;21.80;99.90
30206;DHT22;17010;51.306;3.150;2023-07-28T11:22:55;21.70;99.90
30206;DHT22;17010;51.306;3.150;2023-07-28T11:25:23;21.60;99.90
30206;DHT22;17010;51.306;3.150;2023-07-28T11:27:50;21.60;99.90
30206;DHT22;17010;51.306;3.150;2023-07-28T11:30:17;21.70;99.90
30206;DHT22;17010;51.306;3.150;2023-07-28T11:32:47;21.90;99.90
30206;DHT22;17010;51.306;3.150;2023-07-28T11:35:15;22.10;99.90
30206;DHT22;17010;51.306;3.150;2023-07-28T11:37:44;22.60;99.90
30206;DHT22;17010;51.306;3.150;2023-07-28T11:40:11;23.00;99.90
30206;DHT22;17010;51.306;3.150;2023-07-28T11:42:40;23.30;99.90
30206;DHT22;17010;51.306;3.150;2023-07-28T11:45:10;23.50;99.90
30206;DHT22;17010;51.306;3.150;2023-07-28T11:47:38;23.60;99.90
30206;DHT22;17010;51.306;3.150;2023-07-28T11:50:04;23.80;99.90
30206;DHT22;17010;51.306;3.150;2023-07-28T11:52:34;23.90;99.90
30206;DHT22;17010;51.306;3.150;2023-07-28T11:55:02;24.20;99.90
30206;DHT22;17010;51.306;3.150;2023-07-28T11:57:34;24.50;99.90
30206;DHT22;17010;51.306;3.150;2023-07-28T12:00:00;24.70;99.90
30206;DHT22;17010;51.306;3.150;2023-07-28T12:02:27;24.70;99.90
30206;DHT22;17010;51.306;3.150;2023-07-28T12:04:54;24.50;99.90
30206;DHT22;17010;51.306;3.150;2023-07-28T12:07:28;24.00;99.90
30206;DHT22;17010;51.306;3.150;2023-07-28T12:09:56;23.80;99.90
30206;DHT22;17010;51.306;3.150;2023-07-28T12:12:29;23.60;99.90
30206;DHT22;17010;51.306;3.150;2023-07-28T12:14:57;23.60;99.90
30206;DHT22;17010;51.306;3.150;2023-07-28T12:17:30;23.40;99.90
30206;DHT22;17010;51.306;3.150;2023-07-28T12:20:01;23.30;99.90
30206;DHT22;17010;51.306;3.150;2023-07-28T12:22:32;23.20;99.90
30206;DHT22;17010;51.306;3.150;2023-07-28T12:24:58;23.10;99.90
30206;DHT22;17010;51.306;3.150;2023-07-28T12:27:24;22.80;99.90
30206;DHT22;17010;51.306;3.150;2023-07-28T12:29:53;22.70;99.90
30206;DHT22;17010;51.306;3.150;2023-07-28T12:32:20;22.70;99.90
30206;DHT22;17010;51.306;3.150;2023-07-28T12:34:47;22.70;99.90
30206;DHT22;17010;51.306;3.150;2023-07-28T12:37:14;22.80;99.90
30206;DHT22;17010;51.306;3.150;2023-07-28T12:39:40;22.80;99.90
30206;DHT22;17010;51.306;3.150;2023-07-28T12:42:07;22.70;99.90
30206;DHT22;17010;51.306;3.150;2023-07-28T12:44:34;22.60;99.90
30206;DHT22;17010;51.306;3.150;2023-07-28T12:47:00;22.50;99.90
30206;DHT22;17010;51.306;3.150;2023-07-28T12:49:27;22.50;99.90
30206;DHT22;17010;51.306;3.150;2023-07-28T12:51:59;22.50;99.90
30206;DHT22;17010;51.306;3.150;2023-07-28T12:54:26;22.80;99.90
30206;DHT22;17010;51.306;3.150;2023-07-28T12:56:57;23.20;99.90
30206;DHT22;17010;51.306;3.150;2023-07-28T12:59:24;23.50;99.90
30206;DHT22;17010;51.306;3.150;2023-07-28T13:01:50;23.80;99.90
30206;DHT22;17010;51.306;3.150;2023-07-28T13:04:16;23.80;99.90
30206;DHT22;17010;51.306;3.150;2023-07-28T13:06:43;23.80;99.90
30206;DHT22;17010;51.306;3.150;2023-07-28T13:09:09;23.90;99.90
30206;DHT22;17010;51.306;3.150;2023-07-28T13:11:35;24.20;99.90
30206;DHT22;17010;51.306;3.150;2023-07-28T13:14:03;24.30;99.90
30206;DHT22;17010;51.306;3.150;2023-07-28T13:16:29;24.40;99.90
30206;DHT22;17010;51.306;3.150;2023-07-28T13:18:58;24.30;99.90
30206;DHT22;17010;51.306;3.150;2023-07-28T13:21:25;24.40;99.90
30206;DHT22;17010;51.306;3.150;2023-07-28T13:23:53;24.30;99.90
30206;DHT22;17010;51.306;3.150;2023-07-28T13:26:19;24.40;99.90
30206;DHT22;17010;51.306;3.150;2023-07-28T13:28:46;24.60;99.90
30206;DHT22;17010;51.306;3.150;2023-07-28T13:31:18;24.90;99.90
30206;DHT22;17010;51.306;3.150;2023-07-28T13:33:44;25.30;99.90
30206;DHT22;17010;51.306;3.150;2023-07-28T13:36:12;25.90;99.90
30206;DHT22;17010;51.306;3.150;2023-07-28T13:38:38;26.30;99.90
30206;DHT22;17010;51.306;3.150;2023-07-28T13:41:06;26.20;99.90
30206;DHT22;17010;51.306;3.150;2023-07-28T13:43:33;26.00;99.90
30206;DHT22;17010;51.306;3.150;2023-07-28T13:46:02;25.60;99.90
30206;DHT22;17010;51.306;3.150;2023-07-28T13:48:30;25.50;99.90
30206;DHT22;17010;51.306;3.150;2023-07-28T13:50:58;25.50;99.90
30206;DHT22;17010;51.306;3.150;2023-07-28T13:53:24;25.20;99.90
30206;DHT22;17010;51.306;3.150;2023-07-28T13:55:50;25.00;99.90
30206;DHT22;17010;51.306;3.150;2023-07-28T13:58:17;24.90;99.90
30206;DHT22;17010;51.306;3.150;2023-07-28T14:00:45;24.90;99.90
30206;DHT22;17010;51.306;3.150;2023-07-28T14:03:11;25.10;99.90
30206;DHT22;17010;51.306;3.150;2023-07-28T14:05:38;25.10;99.90
30206;DHT22;17010;51.306;3.150;2023-07-28T14:08:04;24.90;99.90
30206;DHT22;17010;51.306;3.150;2023-07-28T14:10:31;24.80;99.90
30206;DHT22;17010;51.306;3.150;2023-07-28T14:12:59;24.90;99.90
30206;DHT22;17010;51.306;3.150;2023-07-28T14:15:25;24.90;99.90
30206;DHT22;17010;51.306;3.150;2023-07-28T14:17:51;24.90;99.90
30206;DHT22;17010;51.306;3.150;2023-07-28T14:20:18;24.60;99.90
30206;DHT22;17010;51.306;3.150;2023-07-28T14:22:45;24.50;99.90
30206;DHT22;17010;51.306;3.150;2023-07-28T14:25:11;24.50;99.90
30206;DHT22;17010;51.306;3.150;2023-07-28T14:27:38;24.20;99.90
30206;DHT22;17010;51.306;3.150;2023-07-28T14:30:05;24.10;99.90
30206;DHT22;17010;51.306;3.150;2023-07-28T14:32:32;24.10;99.90
30206;DHT22;17010;51.306;3.150;2023-07-28T14:34:58;24.10;99.90
30206;DHT22;17010;51.306;3.150;2023-07-28T14:37:25;24.10;99.90
30206;DHT22;17010;51.306;3.150;2023-07-28T14:39:51;24.10;99.90
30206;DHT22;17010;51.306;3.150;2023-07-28T14:42:17;24.20;99.90
30206;DHT22;17010;51.306;3.150;2023-07-28T14:44:43;24.20;99.90
30206;DHT22;17010;51.306;3.150;2023-07-28T14:47:10;24.20;99.90
30206;DHT22;17010;51.306;3.150;2023-07-28T14:49:36;24.00;99.90
30206;DHT22;17010;51.306;3.150;2023-07-28T14:52:03;23.70;99.90
30206;DHT22;17010;51.306;3.150;2023-07-28T14:54:29;23.80;99.90
30206;DHT22;17010;51.306;3.150;2023-07-28T14:56:55;23.80;99.90
30206;DHT22;17010;51.306;3.150;2023-07-28T14:59:23;23.80;99.90
30206;DHT22;17010;51.306;3.150;2023-07-28T15:01:50;23.90;99.90
30206;DHT22;17010;51.306;3.150;2023-07-28T15:04:16;24.10;99.90
30206;DHT22;17010;51.306;3.150;2023-07-28T15:06:42;24.30;99.90
30206;DHT22;17010;51.306;3.150;2023-07-28T15:09:08;24.30;99.90
30206;DHT22;17010;51.306;3.150;2023-07-28T15:11:34;24.30;99.90
30206;DHT22;17010;51.306;3.150;2023-07-28T15:14:01;24.00;99.90
30206;DHT22;17010;51.306;3.150;2023-07-28T15:16:27;23.60;99.90
30206;DHT22;17010;51.306;3.150;2023-07-28T15:18:54;23.50;99.90
30206;DHT22;17010;51.306;3.150;2023-07-28T15:21:21;23.40;99.90
30206;DHT22;17010;51.306;3.150;2023-07-28T15:23:53;23.30;99.90
30206;DHT22;17010;51.306;3.150;2023-07-28T15:26:20;23.20;99.90
30206;DHT22;17010;51.306;3.150;2023-07-28T15:28:52;23.20;99.90
30206;DHT22;17010;51.306;3.150;2023-07-28T15:31:22;23.10;99.90
30206;DHT22;17010;51.306;3.150;2023-07-28T15:33:55;23.00;99.90
30206;DHT22;17010;51.306;3.150;2023-07-28T15:36:23;22.80;99.90
30206;DHT22;17010;51.306;3.150;2023-07-28T15:38:49;22.90;99.90
30206;DHT22;17010;51.306;3.150;2023-07-28T15:41:15;23.20;99.90
30206;DHT22;17010;51.306;3.150;2023-07-28T15:43:41;23.40;99.90
30206;DHT22;17010;51.306;3.150;2023-07-28T15:46:09;23.60;99.90
30206;DHT22;17010;51.306;3.150;2023-07-28T15:48:35;23.70;99.90
30206;DHT22;17010;51.306;3.150;2023-07-28T15:51:03;23.80;99.90
30206;DHT22;17010;51.306;3.150;2023-07-28T15:53:30;23.80;99.90
30206;DHT22;17010;51.306;3.150;2023-07-28T15:55:59;23.60;99.90
30206;DHT22;17010;51.306;3.150;2023-07-28T15:58:27;23.60;99.90
30206;DHT22;17010;51.306;3.150;2023-07-28T16:00:54;23.60;99.90
30206;DHT22;17010;51.306;3.150;2023-07-28T16:03:21;23.50;99.90
30206;DHT22;17010;51.306;3.150;2023-07-28T16:05:49;23.50;99.90
30206;DHT22;17010;51.306;3.150;2023-07-28T16:08:15;23.50;99.90
30206;DHT22;17010;51.306;3.150;2023-07-28T16:10:43;23.50;99.90
30206;DHT22;17010;51.306;3.150;2023-07-28T16:13:09;23.50;99.90
30206;DHT22;17010;51.306;3.150;2023-07-28T16:15:36;23.50;99.90
30206;DHT22;17010;51.306;3.150;2023-07-28T16:18:02;23.30;99.90
30206;DHT22;17010;51.306;3.150;2023-07-28T16:20:29;23.10;99.90
30206;DHT22;17010;51.306;3.150;2023-07-28T16:22:55;23.10;99.90
30206;DHT22;17010;51.306;3.150;2023-07-28T16:25:21;22.90;99.90
30206;DHT22;17010;51.306;3.150;2023-07-28T16:27:47;23.00;99.90
30206;DHT22;17010;51.306;3.150;2023-07-28T16:30:13;23.00;99.90
30206;DHT22;17010;51.306;3.150;2023-07-28T16:32:40;23.10;99.90
30206;DHT22;17010;51.306;3.150;2023-07-28T16:35:06;23.10;99.90
30206;DHT22;17010;51.306;3.150;2023-07-28T16:37:32;23.20;99.90
30206;DHT22;17010;51.306;3.150;2023-07-28T16:39:59;23.40;99.90
30206;DHT22;17010;51.306;3.150;2023-07-28T16:42:25;23.60;99.90
30206;DHT22;17010;51.306;3.150;2023-07-28T16:44:54;23.50;99.90
30206;DHT22;17010;51.306;3.150;2023-07-28T16:47:20;23.50;99.90
30206;DHT22;17010;51.306;3.150;2023-07-28T16:49:48;23.40;99.90
30206;DHT22;17010;51.306;3.150;2023-07-28T16:52:14;23.30;99.90
30206;DHT22;17010;51.306;3.150;2023-07-28T16:54:41;23.10;99.90
30206;DHT22;17010;51.306;3.150;2023-07-28T16:57:16;23.10;99.90
30206;DHT22;17010;51.306;3.150;2023-07-28T16:59:42;22.80;99.90
30206;DHT22;17010;51.306;3.150;2023-07-28T17:02:09;22.60;99.90
30206;DHT22;17010;51.306;3.150;2023-07-28T17:04:35;22.30;99.90
30206;DHT22;17010;51.306;3.150;2023-07-28T17:07:01;22.20;99.90
30206;DHT22;17010;51.306;3.150;2023-07-28T17:09:27;22.30;99.90
30206;DHT22;17010;51.306;3.150;2023-07-28T17:11:54;22.40;99.90
30206;DHT22;17010;51.306;3.150;2023-07-28T17:14:20;22.50;99.90
30206;DHT22;17010;51.306;3.150;2023-07-28T17:16:46;22.40;99.90
30206;DHT22;17010;51.306;3.150;2023-07-28T17:19:12;22.30;99.90
30206;DHT22;17010;51.306;3.150;2023-07-28T17:21:38;22.30;99.90
30206;DHT22;17010;51.306;3.150;2023-07-28T17:24:05;22.30;99.90
30206;DHT22;17010;51.306;3.150;2023-07-28T17:26:31;22.10;99.90
30206;DHT22;17010;51.306;3.150;2023-07-28T17:28:57;22.10;99.90
30206;DHT22;17010;51.306;3.150;2023-07-28T17:31:25;22.20;99.90